Time;durP1;ratioP1;P1;durP2;ratioP2;P2;SDS_P1;SDS_P2;PMS_P1;PMS_P2;Temp;Humidity;BMP_temperature;BMP_pressure;BME280_temperature;BME280_humidity;BME280_pressure;Samples;Min_cycle;Max_cycle;Signal;HPM_P1;HPM_P2
2023/05/22 00:02:23;;;;;;;;;;;;;;;14.51;100.00;99520.97;5023742;28;20015;-90
2023/05/22 00:04:49;;;;;;;;;;;;;;;14.54;100.00;99520.66;5023410;28;19944;-90
2023/05/22 00:07:15;;;;;;;;;;;;;;;14.55;100.00;99517.00;5013473;28;19925;-88
2023/05/22 00:09:40;;;;;;;;;;;;;;;14.51;100.00;99519.13;5015302;28;20385;-91
2023/05/22 00:12:06;;;;;;;;;;;;;;;14.50;100.00;99520.13;4997496;28;20005;-91
2023/05/22 00:14:31;;;;;;;;;;;;;;;14.54;100.00;99525.94;4998430;28;19968;-90
2023/05/22 00:16:58;;;;;;;;;;;;;;;14.52;100.00;99522.63;5015479;28;19917;-90
2023/05/22 00:19:24;;;;;;;;;;;;;;;14.53;100.00;99521.63;4998463;28;19917;-91
2023/05/22 00:21:50;;;;;;;;;;;;;;;14.56;100.00;99529.25;4998067;28;19918;-88
2023/05/22 00:24:15;;;;;;;;;;;;;;;14.56;100.00;99521.28;5023075;28;19921;-90
2023/05/22 00:26:42;;;;;;;;;;;;;;;14.54;100.00;99525.94;5002100;28;20285;-91
2023/05/22 00:29:08;;;;;;;;;;;;;;;14.55;100.00;99523.09;5027054;28;19937;-90
2023/05/22 00:31:33;;;;;;;;;;;;;;;14.53;100.00;99532.25;5013554;28;19913;-92
2023/05/22 00:33:58;;;;;;;;;;;;;;;14.52;100.00;99530.59;5034123;28;19970;-90
2023/05/22 00:36:24;;;;;;;;;;;;;;;14.50;100.00;99522.78;5035202;28;19921;-90
2023/05/22 00:38:49;;;;;;;;;;;;;;;14.50;100.00;99525.44;5037847;28;19905;-90
2023/05/22 00:41:15;;;;;;;;;;;;;;;14.49;100.00;99522.97;5035935;28;19967;-89
2023/05/22 00:43:40;;;;;;;;;;;;;;;14.48;100.00;99523.97;5022930;28;19924;-88
2023/05/22 00:46:08;;;;;;;;;;;;;;;14.50;100.00;99527.25;5017746;28;19917;-92
2023/05/22 00:48:34;;;;;;;;;;;;;;;14.50;100.00;99529.91;5015207;28;20438;-91
2023/05/22 00:50:59;;;;;;;;;;;;;;;14.49;100.00;99528.28;5016629;28;19969;-92
2023/05/22 00:53:27;;;;;;;;;;;;;;;14.48;100.00;99531.94;5017803;28;20247;-92
2023/05/22 00:55:53;;;;;;;;;;;;;;;14.49;100.00;99522.97;5017351;28;19917;-91
2023/05/22 00:58:18;;;;;;;;;;;;;;;14.43;100.00;99528.97;5000542;28;19924;-91
2023/05/22 01:00:45;;;;;;;;;;;;;;;14.41;100.00;99526.47;5032433;28;19994;-90
2023/05/22 01:03:11;;;;;;;;;;;;;;;14.41;100.00;99525.63;5032853;28;19944;-92
2023/05/22 01:05:37;;;;;;;;;;;;;;;14.40;100.00;99530.13;5034329;28;19921;-91
2023/05/22 01:08:05;;;;;;;;;;;;;;;14.35;100.00;99516.47;5036168;28;19929;-91
2023/05/22 01:10:31;;;;;;;;;;;;;;;14.25;100.00;99524.63;5035168;28;19980;-92
2023/05/22 01:13:09;;;;;;;;;;;;;;;14.07;100.00;99513.34;5039506;28;20324;-91
2023/05/22 01:15:42;;;;;;;;;;;;;;;13.88;100.00;99513.66;5018961;28;19976;-91
2023/05/22 01:18:23;;;;;;;;;;;;;;;13.67;100.00;99510.66;5019919;28;19917;-90
2023/05/22 01:20:57;;;;;;;;;;;;;;;13.61;100.00;99500.72;5031194;28;20334;-90
2023/05/22 01:23:31;;;;;;;;;;;;;;;13.62;100.00;99507.66;5013405;28;19924;-90
2023/05/22 01:26:10;;;;;;;;;;;;;;;13.62;100.00;99503.19;5034097;28;19913;-89
2023/05/22 01:28:44;;;;;;;;;;;;;;;13.42;100.00;99501.84;5035485;28;20341;-89
2023/05/22 01:31:22;;;;;;;;;;;;;;;13.24;100.00;99504.59;5034897;28;19916;-89
2023/05/22 01:33:51;;;;;;;;;;;;;;;13.15;100.00;99497.59;5034149;28;19922;-89
2023/05/22 01:36:21;;;;;;;;;;;;;;;13.07;100.00;99516.09;5032768;28;19981;-88
2023/05/22 01:38:55;;;;;;;;;;;;;;;13.19;100.00;99514.88;5046518;28;20380;-88
2023/05/22 01:41:21;;;;;;;;;;;;;;;13.19;100.00;99506.09;5029198;28;20381;-87
2023/05/22 01:43:46;;;;;;;;;;;;;;;12.98;100.00;99507.28;5017154;28;19917;-89
2023/05/22 01:46:12;;;;;;;;;;;;;;;13.05;100.00;99504.81;5013649;28;20373;-89
2023/05/22 01:48:37;;;;;;;;;;;;;;;13.10;100.00;99507.81;5012487;28;19925;-87
2023/05/22 01:51:06;;;;;;;;;;;;;;;13.11;100.00;99504.19;5013890;28;19917;-90
2023/05/22 01:53:38;;;;;;;;;;;;;;;13.07;100.00;99514.28;5015062;28;20007;-89
2023/05/22 01:56:11;;;;;;;;;;;;;;;12.99;100.00;99516.06;5013517;28;19936;-88
2023/05/22 01:58:42;;;;;;;;;;;;;;;12.97;100.00;99518.84;5035350;23;19921;-81
2023/05/22 02:01:08;;;;;;;;;;;;;;;13.10;100.00;99524.56;5020607;28;19916;-81
2023/05/22 02:03:36;;;;;;;;;;;;;;;13.13;100.00;99518.16;5006910;28;19940;-80
2023/05/22 02:06:04;;;;;;;;;;;;;;;12.96;100.00;99519.03;5034176;28;20012;-79
2023/05/22 02:08:37;;;;;;;;;;;;;;;12.97;100.00;99518.03;5028072;28;19968;-80
2023/05/22 02:11:03;;;;;;;;;;;;;;;12.98;100.00;99511.75;5017317;28;19956;-79
2023/05/22 02:13:29;;;;;;;;;;;;;;;12.91;100.00;99503.59;5040596;28;20293;-79
2023/05/22 02:15:55;;;;;;;;;;;;;;;12.69;100.00;99501.50;5037905;28;19963;-80
2023/05/22 02:18:25;;;;;;;;;;;;;;;12.66;100.00;99499.19;5023802;28;20024;-79
2023/05/22 02:20:51;;;;;;;;;;;;;;;12.54;100.00;99495.16;5032016;28;19963;-80
2023/05/22 02:23:16;;;;;;;;;;;;;;;12.54;100.00;99490.69;5020728;28;19921;-80
2023/05/22 02:25:41;;;;;;;;;;;;;;;12.55;100.00;99496.78;5030660;28;19952;-79
2023/05/22 02:28:07;;;;;;;;;;;;;;;12.60;100.00;99503.31;5030777;28;20012;-79
2023/05/22 02:30:32;;;;;;;;;;;;;;;12.61;100.00;99504.09;5033645;28;20293;-80
2023/05/22 02:32:58;;;;;;;;;;;;;;;12.60;100.00;99500.66;5030653;28;19917;-80
2023/05/22 02:35:24;;;;;;;;;;;;;;;12.70;100.00;99501.38;5036246;28;19999;-79
2023/05/22 02:37:50;;;;;;;;;;;;;;;12.50;100.00;99505.22;5009374;28;19928;-80
2023/05/22 02:40:17;;;;;;;;;;;;;;;12.41;100.00;99507.97;5043603;28;19921;-81
2023/05/22 02:42:42;;;;;;;;;;;;;;;12.30;100.00;99501.13;5010250;28;19972;-81
2023/05/22 02:45:08;;;;;;;;;;;;;;;12.29;100.00;99515.31;5014922;28;19921;-82
2023/05/22 02:47:34;;;;;;;;;;;;;;;12.38;100.00;99511.75;5022892;28;20496;-81
2023/05/22 02:49:59;;;;;;;;;;;;;;;12.44;100.00;99511.13;5025011;28;19916;-80
2023/05/22 02:52:27;;;;;;;;;;;;;;;12.52;100.00;99502.41;5044093;28;19924;-80
2023/05/22 02:54:52;;;;;;;;;;;;;;;12.59;100.00;99504.28;5026698;28;19955;-80
2023/05/22 02:57:19;;;;;;;;;;;;;;;12.60;100.00;99507.75;5019320;28;19988;-79
2023/05/22 02:59:44;;;;;;;;;;;;;;;12.66;100.00;99505.28;5045578;28;20395;-80
2023/05/22 03:02:11;;;;;;;;;;;;;;;12.64;100.00;99507.28;5041968;28;19920;-80
2023/05/22 03:04:37;;;;;;;;;;;;;;;12.53;100.00;99494.31;5041523;28;19924;-79
2023/05/22 03:07:03;;;;;;;;;;;;;;;12.32;100.00;99501.78;5030970;28;19917;-80
2023/05/22 03:09:28;;;;;;;;;;;;;;;12.34;100.00;99499.81;5045591;28;19924;-80
2023/05/22 03:11:54;;;;;;;;;;;;;;;12.36;100.00;99491.72;5042296;28;20339;-80
2023/05/22 03:14:19;;;;;;;;;;;;;;;12.38;100.00;99495.88;5044002;28;19917;-80
2023/05/22 03:16:45;;;;;;;;;;;;;;;12.28;100.00;99495.16;5016493;28;19967;-80
2023/05/22 03:19:11;;;;;;;;;;;;;;;12.06;100.00;99491.19;5027461;28;19920;-80
2023/05/22 03:21:37;;;;;;;;;;;;;;;12.24;100.00;99499.94;5016850;28;19917;-80
2023/05/22 03:24:04;;;;;;;;;;;;;;;12.32;100.00;99497.31;5030761;28;19917;-80
2023/05/22 03:26:29;;;;;;;;;;;;;;;12.40;100.00;99495.72;5034249;28;19924;-80
2023/05/22 03:28:56;;;;;;;;;;;;;;;12.38;100.00;99501.16;5015393;28;19979;-79
2023/05/22 03:31:23;;;;;;;;;;;;;;;12.40;100.00;99501.84;5019078;28;19968;-80
2023/05/22 03:34:00;;;;;;;;;;;;;;;12.50;100.00;99499.06;5017780;28;19917;-80
2023/05/22 03:36:25;;;;;;;;;;;;;;;12.48;100.00;99496.59;5025828;28;19929;-80
2023/05/22 03:38:51;;;;;;;;;;;;;;;12.49;100.00;99508.84;5028120;28;20361;-81
2023/05/22 03:41:17;;;;;;;;;;;;;;;12.54;100.00;99511.88;5020861;28;20019;-81
2023/05/22 03:43:43;;;;;;;;;;;;;;;12.50;100.00;99526.38;5019985;28;19961;-80
2023/05/22 03:46:11;;;;;;;;;;;;;;;12.52;100.00;99532.34;5032990;28;19917;-80
2023/05/22 03:48:37;;;;;;;;;;;;;;;12.54;100.00;99533.03;5040612;28;19917;-80
2023/05/22 03:51:03;;;;;;;;;;;;;;;12.57;100.00;99532.72;5023813;28;19964;-78
2023/05/22 03:53:28;;;;;;;;;;;;;;;12.56;100.00;99523.09;5032165;28;19921;-81
2023/05/22 03:55:54;;;;;;;;;;;;;;;12.55;100.00;99521.44;5040413;28;19917;-82
2023/05/22 03:58:19;;;;;;;;;;;;;;;12.55;100.00;99528.56;5034518;28;19920;-81
2023/05/22 04:00:45;;;;;;;;;;;;;;;12.48;100.00;99533.66;5021093;28;20334;-81
2023/05/22 04:03:11;;;;;;;;;;;;;;;12.50;100.00;99536.97;5014638;28;19917;-81
2023/05/22 04:05:37;;;;;;;;;;;;;;;12.53;100.00;99536.66;5037088;28;19921;-81
2023/05/22 04:08:03;;;;;;;;;;;;;;;12.54;100.00;99537.50;5040182;28;19985;-81
2023/05/22 04:10:28;;;;;;;;;;;;;;;12.45;100.00;99539.25;5041315;28;19917;-81
2023/05/22 04:12:53;;;;;;;;;;;;;;;12.43;100.00;99541.22;5033014;28;19939;-80
2023/05/22 04:15:20;;;;;;;;;;;;;;;12.31;100.00;99531.88;5011659;28;19979;-80
2023/05/22 04:17:46;;;;;;;;;;;;;;;12.38;100.00;99537.38;5034883;28;20284;-81
2023/05/22 04:20:11;;;;;;;;;;;;;;;12.39;100.00;99544.31;5017619;28;19924;-80
2023/05/22 04:22:38;;;;;;;;;;;;;;;12.38;100.00;99548.78;5046261;28;19917;-80
2023/05/22 04:25:04;;;;;;;;;;;;;;;12.25;100.00;99540.44;5009952;28;19923;-81
2023/05/22 04:27:29;;;;;;;;;;;;;;;12.20;100.00;99546.16;5042353;28;20011;-82
2023/05/22 04:29:55;;;;;;;;;;;;;;;12.22;100.00;99546.03;5022548;28;19912;-81
2023/05/22 04:32:23;;;;;;;;;;;;;;;12.05;100.00;99547.72;5031992;28;20008;-82
2023/05/22 04:34:49;;;;;;;;;;;;;;;12.00;100.00;99544.69;5019808;28;19967;-80
2023/05/22 04:37:15;;;;;;;;;;;;;;;12.03;100.00;99543.53;5028933;28;19923;-80
2023/05/22 04:39:41;;;;;;;;;;;;;;;12.03;100.00;99554.13;5031850;28;20009;-83
2023/05/22 04:42:08;;;;;;;;;;;;;;;12.01;100.00;99551.66;5036602;28;19948;-81
2023/05/22 04:44:33;;;;;;;;;;;;;;;11.98;100.00;99557.22;5040578;28;20004;-81
2023/05/22 04:46:59;;;;;;;;;;;;;;;11.71;100.00;99565.19;5043202;28;19920;-81
2023/05/22 04:49:25;;;;;;;;;;;;;;;11.85;100.00;99568.19;5018309;28;19967;-80
2023/05/22 04:51:50;;;;;;;;;;;;;;;11.91;100.00;99566.75;5032599;28;19956;-81
2023/05/22 04:54:16;;;;;;;;;;;;;;;11.89;100.00;99569.56;4999015;28;19972;-80
2023/05/22 04:56:42;;;;;;;;;;;;;;;11.77;100.00;99564.63;5026426;28;19940;-80
2023/05/22 04:59:07;;;;;;;;;;;;;;;11.75;100.00;99567.44;5018392;28;19921;-80
2023/05/22 05:01:34;;;;;;;;;;;;;;;11.76;100.00;99577.03;5036293;28;19943;-80
2023/05/22 05:04:00;;;;;;;;;;;;;;;11.71;100.00;99581.06;5042500;28;19917;-80
2023/05/22 05:06:26;;;;;;;;;;;;;;;11.60;100.00;99576.81;5016949;28;19924;-79
2023/05/22 05:08:51;;;;;;;;;;;;;;;11.52;100.00;99582.00;5020330;28;19916;-79
2023/05/22 05:11:17;;;;;;;;;;;;;;;11.63;100.00;99588.91;5021748;28;20377;-81
2023/05/22 05:13:43;;;;;;;;;;;;;;;11.69;100.00;99578.56;5042337;28;19924;-80
2023/05/22 05:16:08;;;;;;;;;;;;;;;11.77;100.00;99575.22;5034473;28;19927;-80
2023/05/22 05:18:34;;;;;;;;;;;;;;;11.82;100.00;99578.22;5031628;28;20281;-81
2023/05/22 05:20:59;;;;;;;;;;;;;;;11.84;100.00;99585.00;5021152;28;19917;-81
2023/05/22 05:23:25;;;;;;;;;;;;;;;11.94;100.00;99587.59;5017250;28;19920;-84
2023/05/22 05:25:50;;;;;;;;;;;;;;;11.97;100.00;99575.88;5037041;28;19917;-81
2023/05/22 05:28:15;;;;;;;;;;;;;;;11.94;100.00;99576.19;5010558;28;20408;-78
2023/05/22 05:30:42;;;;;;;;;;;;;;;11.94;100.00;99570.91;5033165;28;20468;-79
2023/05/22 05:33:27;;;;;;;;;;;;;;;12.05;100.00;99568.03;5025189;28;19921;-80
2023/05/22 05:36:05;;;;;;;;;;;;;;;12.08;100.00;99573.00;5012380;28;19917;-78
2023/05/22 05:38:31;;;;;;;;;;;;;;;12.01;100.00;99577.25;5009051;28;19917;-80
2023/05/22 05:40:56;;;;;;;;;;;;;;;12.17;100.00;99582.69;5022974;28;19925;-80
2023/05/22 05:43:24;;;;;;;;;;;;;;;12.24;100.00;99589.03;5020929;28;19917;-76
2023/05/22 05:45:50;;;;;;;;;;;;;;;12.27;100.00;99594.84;5014047;28;20348;-80
2023/05/22 05:48:15;;;;;;;;;;;;;;;12.28;100.00;99606.25;5012597;28;19977;-79
2023/05/22 05:50:43;;;;;;;;;;;;;;;12.22;100.00;99585.72;5032754;28;19917;-79
2023/05/22 05:53:09;;;;;;;;;;;;;;;12.26;100.00;99597.63;5025337;28;19924;-80
2023/05/22 05:55:34;;;;;;;;;;;;;;;12.27;100.00;99599.31;5009879;28;19924;-81
2023/05/22 05:58:01;;;;;;;;;;;;;;;12.36;100.00;99603.69;5016548;28;19937;-80
2023/05/22 06:00:41;;;;;;;;;;;;;;;12.43;100.00;99603.91;5014688;28;19960;-79
2023/05/22 06:03:06;;;;;;;;;;;;;;;12.52;100.00;99597.69;5023461;28;19921;-79
2023/05/22 06:05:49;;;;;;;;;;;;;;;12.67;100.00;99601.44;5011004;28;19998;-80
2023/05/22 06:08:33;;;;;;;;;;;;;;;12.81;100.00;99608.00;5040412;28;20011;-80
2023/05/22 06:10:59;;;;;;;;;;;;;;;12.78;100.00;99613.59;5030616;28;20015;-80
2023/05/22 06:13:31;;;;;;;;;;;;;;;12.89;100.00;99616.00;5025589;28;19940;-80
2023/05/22 06:15:56;;;;;;;;;;;;;;;12.85;100.00;99625.22;5015858;28;19996;-80
2023/05/22 06:18:24;;;;;;;;;;;;;;;12.84;100.00;99626.22;5009193;28;20007;-81
2023/05/22 06:20:51;;;;;;;;;;;;;;;12.92;100.00;99626.25;5022911;28;20392;-80
2023/05/22 06:23:18;;;;;;;;;;;;;;;12.93;100.00;99627.94;5022815;28;19923;-81
2023/05/22 06:25:45;;;;;;;;;;;;;;;13.02;100.00;99633.13;5027123;28;19924;-80
2023/05/22 06:28:11;;;;;;;;;;;;;;;13.14;100.00;99636.34;5022003;28;19913;-80
2023/05/22 06:30:36;;;;;;;;;;;;;;;13.21;100.00;99637.41;5022796;28;20408;-81
2023/05/22 06:33:03;;;;;;;;;;;;;;;13.35;100.00;99638.63;5018939;28;20321;-79
2023/05/22 06:35:29;;;;;;;;;;;;;;;13.44;100.00;99638.50;5026895;28;19947;-81
2023/05/22 06:37:55;;;;;;;;;;;;;;;13.61;100.00;99633.28;5024598;28;19960;-81
2023/05/22 06:40:21;;;;;;;;;;;;;;;13.64;100.00;99638.25;5034406;28;19952;-81
2023/05/22 06:42:49;;;;;;;;;;;;;;;13.71;100.00;99637.47;5016800;28;19971;-80
2023/05/22 06:45:41;;;;;;;;;;;;;;;13.64;100.00;99623.19;5028498;28;19917;-81
2023/05/22 06:48:23;;;;;;;;;;;;;;;13.67;100.00;99622.00;5021791;28;19917;-81
2023/05/22 06:51:04;;;;;;;;;;;;;;;13.75;100.00;99630.00;5024399;28;19917;-80
2023/05/22 06:53:29;;;;;;;;;;;;;;;13.92;100.00;99634.38;5024466;28;19917;-81
2023/05/22 06:55:55;;;;;;;;;;;;;;;14.15;100.00;99638.06;5022126;28;19940;-81
2023/05/22 06:58:31;;;;;;;;;;;;;;;14.41;100.00;99631.81;5016462;28;20385;-81
2023/05/22 07:00:58;;;;;;;;;;;;;;;14.51;100.00;99648.41;5015354;28;19925;-81
2023/05/22 07:03:31;;;;;;;;;;;;;;;14.71;100.00;99645.28;5016777;28;19917;-79
2023/05/22 07:06:27;;;;;;;;;;;;;;;14.75;100.00;99645.75;5016923;28;19917;-80
2023/05/22 07:08:53;;;;;;;;;;;;;;;14.86;100.00;99642.75;5016260;28;19917;-79
2023/05/22 07:11:18;;;;;;;;;;;;;;;15.12;100.00;99646.03;5031517;28;20083;-80
2023/05/22 07:13:44;;;;;;;;;;;;;;;15.32;100.00;99649.13;5016151;28;19968;-80
2023/05/22 07:16:09;;;;;;;;;;;;;;;15.41;100.00;99647.28;5016191;28;19924;-80
2023/05/22 07:18:35;;;;;;;;;;;;;;;15.52;100.00;99644.28;5013877;28;20424;-80
2023/05/22 07:21:01;;;;;;;;;;;;;;;15.60;100.00;99652.25;5015492;28;20019;-80
2023/05/22 07:23:27;;;;;;;;;;;;;;;15.68;100.00;99648.69;5016189;28;19916;-80
2023/05/22 07:25:53;;;;;;;;;;;;;;;15.73;100.00;99649.84;5015992;28;19979;-80
2023/05/22 07:28:21;;;;;;;;;;;;;;;15.85;100.00;99650.28;5008711;28;19913;-80
2023/05/22 07:30:57;;;;;;;;;;;;;;;15.88;100.00;99656.09;5013368;28;19917;-81
2023/05/22 07:33:24;;;;;;;;;;;;;;;15.92;100.00;99652.06;5016650;28;19919;-80
2023/05/22 07:35:50;;;;;;;;;;;;;;;16.00;100.00;99658.38;5028969;28;19927;-81
2023/05/22 07:38:16;;;;;;;;;;;;;;;16.01;100.00;99658.19;5015086;28;19974;-80
2023/05/22 07:40:49;;;;;;;;;;;;;;;16.06;100.00;99657.66;5032309;28;20265;-81
2023/05/22 07:43:15;;;;;;;;;;;;;;;16.05;100.00;99650.69;5026704;28;19924;-80
2023/05/22 07:45:40;;;;;;;;;;;;;;;16.18;100.00;99645.63;5016470;28;19924;-80
2023/05/22 07:48:08;;;;;;;;;;;;;;;16.29;100.00;99642.53;5015735;28;19940;-80
2023/05/22 07:50:35;;;;;;;;;;;;;;;16.25;100.00;99641.25;5026046;28;20564;-80
2023/05/22 07:53:03;;;;;;;;;;;;;;;16.33;100.00;99643.84;5027749;28;19939;-79
2023/05/22 07:55:31;;;;;;;;;;;;;;;16.42;100.00;99644.63;5035315;28;19917;-80
2023/05/22 07:57:56;;;;;;;;;;;;;;;16.48;100.00;99644.75;5020777;28;19947;-79
2023/05/22 08:00:30;;;;;;;;;;;;;;;16.56;100.00;99650.00;5016838;28;19918;-81
2023/05/22 08:02:55;;;;;;;;;;;;;;;16.69;100.00;99639.59;5017351;28;19925;-81
2023/05/22 08:05:20;;;;;;;;;;;;;;;16.71;100.00;99637.59;5014882;28;19944;-80
2023/05/22 08:07:46;;;;;;;;;;;;;;;16.83;100.00;99645.16;5014134;28;19917;-80
2023/05/22 08:10:16;;;;;;;;;;;;;;;16.94;100.00;99637.53;5013242;28;19917;-80
2023/05/22 08:12:41;;;;;;;;;;;;;;;17.08;100.00;99635.91;5013227;28;19987;-80
2023/05/22 08:15:07;;;;;;;;;;;;;;;17.16;100.00;99638.47;5012032;28;20408;-80
2023/05/22 08:17:32;;;;;;;;;;;;;;;17.22;100.00;99626.25;5002875;28;19917;-80
2023/05/22 08:19:58;;;;;;;;;;;;;;;17.23;100.00;99636.72;5012694;28;19925;-79
2023/05/22 08:22:23;;;;;;;;;;;;;;;17.31;100.00;99628.66;5013878;28;19917;-80
2023/05/22 08:24:49;;;;;;;;;;;;;;;17.37;100.00;99619.91;5013574;28;19921;-81
2023/05/22 08:27:14;;;;;;;;;;;;;;;17.47;100.00;99625.78;5013060;28;19925;-81
2023/05/22 08:29:39;;;;;;;;;;;;;;;17.66;100.00;99627.09;5013006;28;19913;-80
2023/05/22 08:32:05;;;;;;;;;;;;;;;17.81;100.00;99625.22;5012263;28;19917;-80
2023/05/22 08:34:31;;;;;;;;;;;;;;;17.90;100.00;99633.94;5012845;28;20293;-80
2023/05/22 08:36:57;;;;;;;;;;;;;;;17.86;100.00;99628.16;5012944;28;20361;-80
2023/05/22 08:39:23;;;;;;;;;;;;;;;17.93;100.00;99629.06;5013555;28;19924;-80
2023/05/22 08:41:48;;;;;;;;;;;;;;;18.04;100.00;99629.56;5012889;28;19913;-80
2023/05/22 08:44:15;;;;;;;;;;;;;;;18.10;100.00;99629.66;5012457;28;19980;-79
2023/05/22 08:46:43;;;;;;;;;;;;;;;18.22;100.00;99628.13;5012678;28;19917;-79
2023/05/22 08:49:09;;;;;;;;;;;;;;;18.32;100.00;99620.63;5012305;28;19948;-80
2023/05/22 08:51:38;;;;;;;;;;;;;;;18.42;100.00;99628.34;5023327;28;19917;-80
2023/05/22 08:54:05;;;;;;;;;;;;;;;18.49;100.00;99633.75;5023823;28;20003;-79
2023/05/22 08:56:31;;;;;;;;;;;;;;;18.56;100.00;99629.28;5009992;28;20320;-81
2023/05/22 08:58:58;;;;;;;;;;;;;;;18.62;100.00;99634.69;5016542;28;19917;-81
2023/05/22 09:01:24;;;;;;;;;;;;;;;18.72;100.00;99629.03;5002927;28;19917;-80
2023/05/22 09:03:50;;;;;;;;;;;;;;;18.80;100.00;99626.22;5018160;28;19924;-79
2023/05/22 09:06:16;;;;;;;;;;;;;;;18.87;100.00;99619.06;5011240;28;19917;-81
2023/05/22 09:08:41;;;;;;;;;;;;;;;18.98;100.00;99623.06;5016286;28;19944;-81
2023/05/22 09:11:07;;;;;;;;;;;;;;;19.02;100.00;99625.16;5014499;28;19917;-82
2023/05/22 09:13:32;;;;;;;;;;;;;;;19.13;100.00;99624.63;5012665;28;19949;-80
2023/05/22 09:16:08;;;;;;;;;;;;;;;19.19;100.00;99628.34;5004669;28;19975;-80
2023/05/22 09:18:35;;;;;;;;;;;;;;;19.27;100.00;99624.69;5010836;28;19918;-80
2023/05/22 09:21:02;;;;;;;;;;;;;;;19.30;100.00;99626.97;5016231;28;20373;-80
2023/05/22 09:23:29;;;;;;;;;;;;;;;19.31;100.00;99625.97;5017817;28;20416;-80
2023/05/22 09:25:55;;;;;;;;;;;;;;;19.39;100.00;99620.44;5021208;28;20285;-80
2023/05/22 09:28:20;;;;;;;;;;;;;;;19.41;100.00;99618.38;5000835;28;19920;-80
2023/05/22 09:30:50;;;;;;;;;;;;;;;19.44;100.00;99623.38;5023506;28;20348;-80
2023/05/22 09:33:16;;;;;;;;;;;;;;;19.52;100.00;99620.53;5013260;28;20423;-80
2023/05/22 09:35:42;;;;;;;;;;;;;;;19.61;100.00;99624.72;5020523;28;20004;-80
2023/05/22 09:38:09;;;;;;;;;;;;;;;19.70;100.00;99626.19;5008705;28;19921;-81
2023/05/22 09:40:36;;;;;;;;;;;;;;;19.76;100.00;99622.69;5016828;28;19917;-80
2023/05/22 09:43:05;;;;;;;;;;;;;;;19.84;100.00;99619.84;5021829;28;19917;-80
2023/05/22 09:45:33;;;;;;;;;;;;;;;19.96;100.00;99612.91;5017655;28;20442;-80
2023/05/22 09:47:58;;;;;;;;;;;;;;;20.11;100.00;99612.72;5020308;28;19945;-78
2023/05/22 09:50:23;;;;;;;;;;;;;;;20.25;100.00;99605.53;5001213;28;19971;-78
2023/05/22 09:52:49;;;;;;;;;;;;;;;20.29;100.00;99606.78;5016167;28;20016;-80
2023/05/22 09:55:16;;;;;;;;;;;;;;;20.41;100.00;99606.00;5005125;28;19925;-80
2023/05/22 09:57:47;;;;;;;;;;;;;;;20.51;100.00;99605.56;5029908;28;19917;-80
2023/05/22 10:00:16;;;;;;;;;;;;;;;20.41;100.00;99600.63;5036397;28;19917;-80
2023/05/22 10:02:45;;;;;;;;;;;;;;;20.41;100.00;99606.00;5034032;28;20006;-80
2023/05/22 10:05:11;;;;;;;;;;;;;;;20.43;100.00;99603.13;5039661;28;19924;-80
2023/05/22 10:07:42;;;;;;;;;;;;;;;20.54;100.00;99601.69;5045932;28;19933;-81
2023/05/22 10:10:10;;;;;;;;;;;;;;;20.50;100.00;99595.88;5037425;28;19967;-81
2023/05/22 10:12:41;;;;;;;;;;;;;;;20.68;100.00;99603.31;5039320;28;19917;-81
2023/05/22 10:15:08;;;;;;;;;;;;;;;20.81;100.00;99596.09;5031015;28;20388;-81
2023/05/22 10:17:34;;;;;;;;;;;;;;;20.91;100.00;99594.88;5040133;28;19920;-81
2023/05/22 10:20:00;;;;;;;;;;;;;;;20.93;100.00;99592.78;5038602;28;19916;-81
2023/05/22 10:22:27;;;;;;;;;;;;;;;20.98;100.00;99590.28;5039663;28;20292;-81
2023/05/22 10:24:53;;;;;;;;;;;;;;;20.76;100.00;99609.31;5038154;28;19916;-81
2023/05/22 10:27:18;;;;;;;;;;;;;;;20.82;100.00;99592.38;5029510;28;19923;-81
2023/05/22 10:29:48;;;;;;;;;;;;;;;20.87;100.00;99589.06;5037165;28;19935;-81
2023/05/22 10:32:32;;;;;;;;;;;;;;;20.90;100.00;99582.47;5034657;28;20008;-81
2023/05/22 10:35:08;;;;;;;;;;;;;;;20.96;100.00;99582.47;5016854;28;19925;-81
2023/05/22 10:37:52;;;;;;;;;;;;;;;21.01;100.00;99581.84;5024555;28;20007;-82
2023/05/22 10:40:29;;;;;;;;;;;;;;;21.09;100.00;99582.44;5042449;28;19932;-81
2023/05/22 10:43:00;;;;;;;;;;;;;;;21.07;100.00;99581.00;5034078;28;19991;-81
2023/05/22 10:45:30;;;;;;;;;;;;;;;21.15;100.00;99580.78;5039455;28;20281;-81
2023/05/22 10:48:06;;;;;;;;;;;;;;;21.21;100.00;99579.94;5039975;28;20364;-80
2023/05/22 10:50:32;;;;;;;;;;;;;;;21.30;100.00;99573.34;5022715;28;20345;-82
2023/05/22 10:53:16;;;;;;;;;;;;;;;21.41;100.00;99574.53;5042165;28;19924;-81
2023/05/22 10:55:54;;;;;;;;;;;;;;;21.52;100.00;99572.00;5041647;28;19917;-80
2023/05/22 10:58:29;;;;;;;;;;;;;;;21.56;100.00;99573.22;5043070;28;20027;-81
2023/05/22 11:01:14;;;;;;;;;;;;;;;21.67;100.00;99568.25;5002054;28;19921;-81
2023/05/22 11:03:59;;;;;;;;;;;;;;;21.72;100.00;99569.25;5040060;28;20301;-79
2023/05/22 11:06:44;;;;;;;;;;;;;;;21.81;100.00;99569.81;5037365;28;19996;-81
2023/05/22 11:09:28;;;;;;;;;;;;;;;21.82;100.00;99566.09;5040585;28;19971;-77
2023/05/22 11:12:12;;;;;;;;;;;;;;;21.69;100.00;99568.81;5026384;28;20015;-80
2023/05/22 11:14:38;;;;;;;;;;;;;;;21.68;100.00;99557.25;5042172;28;19978;-81
2023/05/22 11:17:11;;;;;;;;;;;;;;;21.66;100.00;99562.03;5042035;28;19917;-80
2023/05/22 11:19:38;;;;;;;;;;;;;;;21.72;100.00;99550.44;5041413;28;19923;-80
2023/05/22 11:22:04;;;;;;;;;;;;;;;21.75;100.00;99557.22;5042244;28;19917;-79
2023/05/22 11:24:35;;;;;;;;;;;;;;;21.67;100.00;99552.13;5036537;28;19917;-80
2023/05/22 11:27:05;;;;;;;;;;;;;;;21.70;100.00;99546.31;5033493;28;20327;-80
2023/05/22 11:29:30;;;;;;;;;;;;;;;21.83;100.00;99547.06;5027502;28;19932;-81
2023/05/22 11:31:57;;;;;;;;;;;;;;;21.95;100.00;99555.28;5032520;28;20429;-80
2023/05/22 11:34:23;;;;;;;;;;;;;;;21.98;100.00;99544.94;5033739;28;19913;-80
2023/05/22 11:36:48;;;;;;;;;;;;;;;21.99;100.00;99546.59;5036951;28;20012;-79
2023/05/22 11:39:14;;;;;;;;;;;;;;;22.00;100.00;99542.84;5032529;28;20059;-81
2023/05/22 11:41:39;;;;;;;;;;;;;;;22.06;100.00;99535.78;5040588;28;19916;-80
2023/05/22 11:44:06;;;;;;;;;;;;;;;22.17;100.00;99532.41;5039158;28;19953;-80
2023/05/22 11:46:32;;;;;;;;;;;;;;;22.30;100.00;99532.31;5036039;28;20050;-80
2023/05/22 11:48:57;;;;;;;;;;;;;;;22.38;100.00;99532.00;5037660;28;19962;-80
2023/05/22 11:51:22;;;;;;;;;;;;;;;22.53;100.00;99530.88;5030788;28;19917;-79
2023/05/22 11:53:48;;;;;;;;;;;;;;;22.67;100.00;99529.72;5031888;28;20360;-80
2023/05/22 11:56:13;;;;;;;;;;;;;;;22.81;100.00;99523.19;5037094;28;19924;-80
2023/05/22 11:58:38;;;;;;;;;;;;;;;22.90;100.00;99527.25;5040199;28;19933;-80
2023/05/22 12:01:04;;;;;;;;;;;;;;;22.87;100.00;99516.91;5043116;28;20392;-80
2023/05/22 12:03:30;;;;;;;;;;;;;;;22.88;100.00;99523.94;5035407;28;20033;-81
2023/05/22 12:05:56;;;;;;;;;;;;;;;22.93;100.00;99513.31;5033874;28;19918;-80
2023/05/22 12:08:23;;;;;;;;;;;;;;;23.11;100.00;99507.13;5031742;28;19971;-80
2023/05/22 12:10:51;;;;;;;;;;;;;;;23.27;100.00;99509.19;5034520;28;20353;-79
2023/05/22 12:13:21;;;;;;;;;;;;;;;23.40;99.42;99508.22;5016502;28;19917;-80
2023/05/22 12:15:46;;;;;;;;;;;;;;;23.49;99.41;99505.03;5030390;28;19971;-79
2023/05/22 12:18:12;;;;;;;;;;;;;;;23.52;99.78;99503.75;5033835;28;20390;-80
2023/05/22 12:20:40;;;;;;;;;;;;;;;23.28;97.17;99497.38;5041710;28;19921;-79
2023/05/22 12:23:09;;;;;;;;;;;;;;;23.48;95.78;99497.19;5043534;28;20292;-80
2023/05/22 12:25:38;;;;;;;;;;;;;;;23.52;95.54;99495.66;5037151;28;19916;-80
2023/05/22 12:28:06;;;;;;;;;;;;;;;23.58;95.58;99497.44;5032976;28;19917;-80
2023/05/22 12:30:41;;;;;;;;;;;;;;;23.53;94.46;99490.06;5036984;28;19990;-80
2023/05/22 12:33:11;;;;;;;;;;;;;;;23.45;95.04;99487.63;5028684;28;19929;-82
2023/05/22 12:35:37;;;;;;;;;;;;;;;23.66;94.21;99491.75;5035999;28;19967;-81
2023/05/22 12:38:02;;;;;;;;;;;;;;;23.96;91.92;99489.03;5037613;28;20361;-78
2023/05/22 12:40:27;;;;;;;;;;;;;;;24.21;91.80;99488.88;5011480;28;20463;-81
2023/05/22 12:42:53;;;;;;;;;;;;;;;24.50;90.18;99479.88;5032940;28;19917;-79